createdAt,value
2019-02-09T00:00:31.348Z,0.00
2019-02-09T00:01:31.285Z,0.00
2019-02-09T00:02:31.255Z,0.00
2019-02-09T00:03:31.222Z,0.00
2019-02-09T00:04:31.263Z,0.00
2019-02-09T00:05:31.168Z,0.00
2019-02-09T00:06:31.173Z,0.00
2019-02-09T00:07:31.114Z,0.00
2019-02-09T00:08:31.095Z,0.00
2019-02-09T00:09:32.114Z,0.00
2019-02-09T00:10:31.037Z,0.00
2019-02-09T00:11:31.105Z,0.00
2019-02-09T00:12:30.974Z,0.00
2019-02-09T00:13:31.012Z,0.00
2019-02-09T00:14:30.915Z,0.00
2019-02-09T00:15:30.927Z,0.00
2019-02-09T00:16:30.863Z,0.00
2019-02-09T00:17:30.945Z,0.00
2019-02-09T00:18:30.814Z,0.00
2019-02-09T00:19:30.774Z,0.00
2019-02-09T00:20:31.777Z,0.00
2019-02-09T00:21:30.724Z,0.00
2019-02-09T00:22:30.764Z,0.00
2019-02-09T00:23:30.663Z,0.00
2019-02-09T00:24:30.675Z,0.00
2019-02-09T00:25:30.614Z,0.00
2019-02-09T00:26:30.686Z,0.00
2019-02-09T00:27:30.555Z,0.00
2019-02-09T00:28:30.593Z,0.00
2019-02-09T00:29:30.506Z,0.00
2019-02-09T00:30:30.473Z,0.00
2019-02-09T00:31:30.446Z,0.00
2019-02-09T00:32:30.523Z,0.00
2019-02-09T00:33:30.382Z,0.00
2019-02-09T00:34:30.433Z,0.00
2019-02-09T00:35:30.345Z,0.00
2019-02-09T00:36:30.305Z,0.00
2019-02-09T00:37:30.342Z,0.00
2019-02-09T00:38:30.241Z,0.00
2019-02-09T00:39:30.254Z,0.00
2019-02-09T00:40:30.192Z,0.00
2019-02-09T00:41:30.165Z,0.00
2019-02-09T00:42:30.136Z,0.00
2019-02-09T00:43:30.182Z,0.00
2019-02-09T00:44:30.073Z,0.00
2019-02-09T00:45:30.095Z,0.00
2019-02-09T00:46:30.022Z,0.00
2019-02-09T00:47:30.005Z,0.00
2019-02-09T00:48:30.007Z,0.00
2019-02-09T00:49:29.948Z,0.00
2019-02-09T00:50:30.035Z,0.00
2019-02-09T00:51:29.881Z,0.00
2019-02-09T00:52:29.857Z,0.00
2019-02-09T00:53:29.824Z,0.00
2019-02-09T00:54:29.844Z,0.00
2019-02-09T00:55:29.774Z,0.00
2019-02-09T00:56:29.854Z,0.00
2019-02-09T00:57:29.714Z,0.00
2019-02-09T00:58:29.694Z,0.00
2019-02-09T00:59:29.777Z,0.00
2019-02-09T01:00:31.369Z,0.00
2019-02-09T01:01:29.674Z,0.00
2019-02-09T01:02:29.573Z,0.00
2019-02-09T01:03:29.593Z,0.00
2019-02-09T01:04:29.525Z,0.00
2019-02-09T01:05:29.603Z,0.00
2019-02-09T01:06:29.463Z,0.00
2019-02-09T01:07:29.513Z,0.00
2019-02-09T01:08:29.416Z,0.00
2019-02-09T01:09:29.382Z,0.00
2019-02-09T01:10:29.354Z,0.00
2019-02-09T01:11:29.435Z,0.00
2019-02-09T01:12:29.294Z,0.00
2019-02-09T01:13:29.344Z,0.00
2019-02-09T01:14:29.248Z,0.00
2019-02-09T01:15:29.215Z,0.00
2019-02-09T01:16:29.262Z,0.00
2019-02-09T01:17:29.156Z,0.00
2019-02-09T01:18:29.184Z,0.00
2019-02-09T01:19:29.107Z,0.00
2019-02-09T01:20:29.073Z,0.00
2019-02-09T01:21:29.045Z,0.00
2019-02-09T01:22:29.095Z,0.00
2019-02-09T01:23:28.995Z,0.00
2019-02-09T01:24:29.004Z,0.00
2019-02-09T01:25:28.943Z,0.00
2019-02-09T01:26:28.904Z,0.00
2019-02-09T01:27:28.874Z,0.00
2019-02-09T01:28:28.926Z,0.00
2019-02-09T01:29:28.825Z,0.00
2019-02-09T01:30:28.834Z,0.00
2019-02-09T01:31:28.777Z,0.00
2019-02-09T01:32:28.865Z,0.00
2019-02-09T01:33:28.704Z,0.00
2019-02-09T01:34:28.776Z,0.00
2019-02-09T01:35:28.653Z,0.00
2019-02-09T01:36:28.675Z,0.00
2019-02-09T01:37:28.675Z,0.00
2019-02-09T01:38:28.586Z,0.00
2019-02-09T01:39:28.584Z,0.00
2019-02-09T01:40:28.515Z,0.00
2019-02-09T01:41:28.495Z,0.00
2019-02-09T01:42:28.466Z,0.00
2019-02-09T01:43:28.436Z,0.00
2019-02-09T01:44:28.524Z,0.00
2019-02-09T01:45:28.387Z,0.00
2019-02-09T01:46:28.431Z,0.00
2019-02-09T01:47:28.314Z,0.00
2019-02-09T01:48:28.294Z,0.00
2019-02-09T01:49:28.264Z,0.00
2019-02-09T01:50:28.342Z,0.00
2019-02-09T01:51:28.204Z,0.00
2019-02-09T01:52:28.265Z,0.00
2019-02-09T01:53:28.155Z,0.00
2019-02-09T01:54:28.135Z,0.00
2019-02-09T01:55:28.174Z,0.00
2019-02-09T01:56:28.067Z,0.00
2019-02-09T01:57:28.086Z,0.00
2019-02-09T01:58:28.013Z,0.00
2019-02-09T01:59:27.988Z,0.00
2019-02-09T02:00:27.958Z,0.00
2019-02-09T02:01:28.015Z,0.00
2019-02-09T02:02:27.895Z,0.00
2019-02-09T02:03:27.912Z,0.00
2019-02-09T02:04:27.844Z,0.00
2019-02-09T02:05:27.813Z,0.00
2019-02-09T02:06:27.838Z,0.00
2019-02-09T02:07:27.764Z,0.00
2019-02-09T02:08:27.744Z,0.00
2019-02-09T02:09:27.703Z,0.00
2019-02-09T02:10:27.672Z,0.00
2019-02-09T02:11:27.652Z,0.00
2019-02-09T02:12:27.669Z,0.00
2019-02-09T02:13:27.593Z,0.00
2019-02-09T02:14:27.574Z,0.00
2019-02-09T02:15:27.544Z,0.00
2019-02-09T02:16:27.537Z,0.00
2019-02-09T02:17:27.492Z,0.00
2019-02-09T02:18:27.454Z,0.00
2019-02-09T02:19:27.505Z,0.00
2019-02-09T02:20:27.395Z,0.00
2019-02-09T02:21:27.364Z,0.00
2019-02-09T02:22:27.344Z,0.00
2019-02-09T02:23:27.327Z,0.00
2019-02-09T02:24:27.284Z,0.00
2019-02-09T02:25:27.347Z,0.00
2019-02-09T02:26:27.233Z,0.00
2019-02-09T02:27:27.203Z,0.00
2019-02-09T02:28:27.255Z,0.00
2019-02-09T02:29:27.145Z,0.00
2019-02-09T02:30:27.165Z,0.00
2019-02-09T02:31:27.096Z,0.00
2019-02-09T02:32:27.076Z,0.00
2019-02-09T02:33:27.036Z,0.00
2019-02-09T02:34:27.104Z,0.00
2019-02-09T02:35:26.984Z,0.00
2019-02-09T02:36:27.004Z,0.00
2019-02-09T02:37:26.940Z,0.00
2019-02-09T02:38:26.905Z,0.00
2019-02-09T02:39:26.863Z,0.00
2019-02-09T02:40:26.924Z,0.00
2019-02-09T02:41:26.849Z,0.00
2019-02-09T02:42:26.841Z,0.00
2019-02-09T02:43:26.764Z,0.00
2019-02-09T02:44:26.748Z,0.00
2019-02-09T02:45:26.742Z,0.00
2019-02-09T02:46:26.662Z,0.00
2019-02-09T02:47:26.672Z,0.00
2019-02-09T02:48:26.612Z,0.00
2019-02-09T02:49:26.581Z,0.00
2019-02-09T02:50:26.555Z,0.00
2019-02-09T02:51:26.585Z,0.00
2019-02-09T02:52:26.503Z,0.00
2019-02-09T02:53:26.493Z,0.00
2019-02-09T02:54:26.455Z,0.00
2019-02-09T02:55:26.413Z,0.00
2019-02-09T02:56:26.395Z,0.00
2019-02-09T02:57:26.733Z,0.00
2019-02-09T02:58:26.344Z,0.00
2019-02-09T02:59:26.323Z,0.00
2019-02-09T03:00:32.216Z,0.00
2019-02-09T03:01:26.255Z,0.00
2019-02-09T03:02:26.262Z,0.00
2019-02-09T03:03:26.193Z,0.00
2019-02-09T03:04:26.255Z,0.00
2019-02-09T03:05:26.145Z,0.00
2019-02-09T03:06:26.105Z,0.00
2019-02-09T03:07:26.181Z,0.00
2019-02-09T03:08:26.070Z,0.00
2019-02-09T03:09:26.086Z,0.00
2019-02-09T03:10:25.998Z,0.00
2019-02-09T03:11:25.964Z,0.00
2019-02-09T03:12:25.943Z,0.00
2019-02-09T03:13:26.003Z,0.00
2019-02-09T03:14:25.882Z,0.00
2019-02-09T03:15:25.913Z,0.00
2019-02-09T03:16:25.821Z,0.00
2019-02-09T03:17:25.803Z,0.00
2019-02-09T03:18:25.774Z,0.00
2019-02-09T03:19:25.831Z,0.00
2019-02-09T03:20:25.714Z,0.00
2019-02-09T03:21:25.745Z,0.00
2019-02-09T03:22:25.662Z,0.00
2019-02-09T03:23:25.654Z,0.00
2019-02-09T03:24:25.618Z,0.00
2019-02-09T03:25:25.676Z,0.00
2019-02-09T03:26:25.553Z,0.00
2019-02-09T03:27:25.584Z,0.00
2019-02-09T03:28:25.582Z,0.00
2019-02-09T03:29:25.471Z,0.00
2019-02-09T03:30:25.520Z,0.00
2019-02-09T03:31:25.415Z,0.00
2019-02-09T03:32:25.404Z,0.00
2019-02-09T03:33:25.357Z,0.00
2019-02-09T03:34:25.321Z,0.00
2019-02-09T03:35:25.324Z,0.00
2019-02-09T03:36:25.264Z,0.00
2019-02-09T03:37:25.332Z,0.00
2019-02-09T03:38:25.216Z,0.00
2019-02-09T03:39:25.229Z,0.00
2019-02-09T03:40:25.154Z,0.00
2019-02-09T03:41:25.151Z,0.00
2019-02-09T03:42:25.103Z,0.00
2019-02-09T03:43:25.171Z,0.00
2019-02-09T03:44:25.043Z,0.00
2019-02-09T03:45:25.012Z,0.00
2019-02-09T03:46:25.081Z,0.00
2019-02-09T03:47:24.966Z,0.00
2019-02-09T03:48:24.991Z,0.00
2019-02-09T03:49:24.903Z,0.00
2019-02-09T03:50:24.872Z,0.00
2019-02-09T03:51:24.846Z,0.00
2019-02-09T03:52:24.916Z,0.00
2019-02-09T03:53:24.793Z,0.00
2019-02-09T03:54:24.829Z,0.00
2019-02-09T03:55:24.742Z,0.00
2019-02-09T03:56:24.706Z,0.00
2019-02-09T03:57:24.744Z,0.00
2019-02-09T03:58:24.641Z,0.00
2019-02-09T03:59:24.659Z,0.00
2019-02-09T04:00:24.593Z,0.00
2019-02-09T04:01:24.663Z,0.00
2019-02-09T04:02:24.536Z,0.00
2019-02-09T04:03:24.572Z,0.00
2019-02-09T04:04:24.476Z,0.00
2019-02-09T04:05:24.495Z,0.00
2019-02-09T04:06:24.421Z,0.00
2019-02-09T04:07:24.390Z,0.00
2019-02-09T04:08:24.362Z,0.00
2019-02-09T04:09:24.410Z,0.00
2019-02-09T04:10:24.313Z,0.00
2019-02-09T04:11:24.330Z,0.00
2019-02-09T04:12:24.264Z,0.00
2019-02-09T04:13:24.224Z,0.00
2019-02-09T04:14:24.234Z,0.00
2019-02-09T04:15:24.185Z,0.00
2019-02-09T04:16:24.257Z,0.00
2019-02-09T04:17:24.114Z,0.00
2019-02-09T04:18:24.081Z,0.00
2019-02-09T04:19:24.061Z,0.00
2019-02-09T04:20:24.074Z,0.00
2019-02-09T04:21:24.004Z,0.00
2019-02-09T04:22:24.089Z,0.00
2019-02-09T04:23:23.943Z,0.00
2019-02-09T04:24:23.916Z,0.00
2019-02-09T04:25:23.993Z,0.00
2019-02-09T04:26:23.855Z,0.00
2019-02-09T04:27:23.903Z,0.00
2019-02-09T04:28:23.803Z,0.00
2019-02-09T04:29:23.787Z,0.00
2019-02-09T04:30:23.741Z,0.00
2019-02-09T04:31:23.845Z,0.00
2019-02-09T04:32:23.697Z,0.00
2019-02-09T04:33:23.743Z,0.00
2019-02-09T04:34:23.643Z,0.00
2019-02-09T04:35:23.612Z,0.00
2019-02-09T04:36:23.652Z,0.00
2019-02-09T04:37:23.556Z,0.00
2019-02-09T04:38:23.576Z,0.00
2019-02-09T04:39:23.494Z,0.00
2019-02-09T04:40:23.514Z,0.00
2019-02-09T04:41:23.432Z,0.00
2019-02-09T04:42:23.492Z,0.00
2019-02-09T04:43:23.373Z,0.00
2019-02-09T04:44:23.401Z,0.00
2019-02-09T04:45:23.328Z,0.00
2019-02-09T04:46:23.295Z,0.00
2019-02-09T04:47:23.313Z,0.00
2019-02-09T04:48:23.235Z,0.00
2019-02-09T04:49:23.232Z,0.00
2019-02-09T04:50:23.183Z,0.00
2019-02-09T04:51:23.245Z,0.00
2019-02-09T04:52:23.122Z,0.00
2019-02-09T04:53:23.155Z,0.00
2019-02-09T04:54:23.072Z,0.00
2019-02-09T04:55:23.070Z,0.00
2019-02-09T04:56:23.016Z,0.00
2019-02-09T04:57:22.993Z,0.00
2019-02-09T04:58:22.994Z,0.00
2019-02-09T04:59:22.988Z,0.00
2019-02-09T05:00:22.903Z,0.00
2019-02-09T05:01:22.892Z,0.00
2019-02-09T05:02:22.848Z,0.00
2019-02-09T05:03:22.815Z,0.00
2019-02-09T05:04:22.813Z,0.00
2019-02-09T05:05:22.763Z,0.00
2019-02-09T05:06:22.823Z,0.00
2019-02-09T05:07:22.705Z,0.00
2019-02-09T05:08:22.672Z,0.00
2019-02-09T05:09:22.642Z,0.00
2019-02-09T05:10:22.642Z,0.00
2019-02-09T05:11:22.583Z,0.00
2019-02-09T05:12:22.650Z,0.00
2019-02-09T05:13:22.553Z,0.00
2019-02-09T05:14:22.505Z,0.00
2019-02-09T05:15:22.474Z,0.00
2019-02-09T05:16:22.473Z,0.00
2019-02-09T05:17:22.436Z,0.00
2019-02-09T05:18:22.482Z,0.00
2019-02-09T05:19:22.363Z,0.00
2019-02-09T05:20:24.388Z,0.00
2019-02-09T05:21:22.304Z,0.00
2019-02-09T05:22:22.302Z,0.00
2019-02-09T05:23:22.258Z,0.00
2019-02-09T05:24:22.366Z,0.00
2019-02-09T05:25:22.199Z,0.00
2019-02-09T05:26:22.235Z,0.00
2019-02-09T05:27:22.158Z,0.00
2019-02-09T05:28:22.144Z,0.00
2019-02-09T05:29:22.086Z,0.00
2019-02-09T05:30:22.152Z,0.00
2019-02-09T05:31:23.389Z,0.00
2019-02-09T05:32:22.063Z,0.00
2019-02-09T05:33:21.991Z,0.00
2019-02-09T05:34:21.972Z,0.00
2019-02-09T05:35:21.918Z,0.00
2019-02-09T05:36:21.882Z,0.00
2019-02-09T05:37:21.902Z,0.00
2019-02-09T05:38:21.827Z,0.00
2019-02-09T05:39:21.904Z,0.00
2019-02-09T05:40:21.774Z,0.00
2019-02-09T05:41:21.814Z,0.00
2019-02-09T05:42:21.724Z,0.00
2019-02-09T05:43:21.726Z,0.00
2019-02-09T05:44:21.663Z,0.00
2019-02-09T05:45:21.786Z,0.00
2019-02-09T05:46:21.613Z,0.00
2019-02-09T05:47:21.575Z,0.00
2019-02-09T05:48:21.546Z,0.00
2019-02-09T05:49:21.554Z,0.00
2019-02-09T05:50:21.483Z,0.00
2019-02-09T05:51:21.577Z,0.00
2019-02-09T05:52:21.444Z,0.00
2019-02-09T05:53:21.452Z,0.00
2019-02-09T05:54:21.481Z,0.00
2019-02-09T05:55:21.344Z,0.00
2019-02-09T05:56:21.394Z,0.00
2019-02-09T05:57:21.297Z,0.00
2019-02-09T05:58:21.264Z,0.00
2019-02-09T05:59:21.241Z,0.00
2019-02-09T06:00:21.314Z,0.00
2019-02-09T06:01:21.173Z,0.00
2019-02-09T06:02:21.225Z,0.00
2019-02-09T06:03:21.116Z,0.00
2019-02-09T06:04:21.093Z,0.00
2019-02-09T06:05:21.157Z,0.00
2019-02-09T06:06:21.032Z,0.00
2019-02-09T06:07:21.052Z,0.00
2019-02-09T06:08:20.989Z,0.00
2019-02-09T06:09:20.963Z,0.00
2019-02-09T06:10:20.925Z,0.00
2019-02-09T06:11:20.984Z,0.00
2019-02-09T06:12:20.874Z,0.00
2019-02-09T06:13:20.882Z,0.00
2019-02-09T06:14:20.834Z,0.00
2019-02-09T06:15:20.781Z,0.00
2019-02-09T06:16:20.753Z,0.00
2019-02-09T06:17:20.811Z,0.00
2019-02-09T06:18:20.701Z,0.00
2019-02-09T06:19:20.724Z,0.00
2019-02-09T06:20:20.633Z,0.00
2019-02-09T06:21:20.614Z,0.00
2019-02-09T06:22:20.646Z,0.00
2019-02-09T06:23:20.563Z,0.00
2019-02-09T06:24:20.556Z,0.00
2019-02-09T06:25:20.494Z,0.00
2019-02-09T06:26:20.475Z,0.00
2019-02-09T06:27:20.444Z,0.00
2019-02-09T06:28:20.474Z,0.00
2019-02-09T06:29:20.382Z,0.00
2019-02-09T06:30:20.395Z,0.00
2019-02-09T06:31:20.325Z,0.00
2019-02-09T06:32:20.293Z,0.00
2019-02-09T06:33:20.306Z,0.00
2019-02-09T06:34:20.255Z,0.00
2019-02-09T06:35:20.323Z,0.00
2019-02-09T06:36:20.184Z,0.00
2019-02-09T06:37:20.155Z,0.00
2019-02-09T06:38:20.126Z,4.00
2019-02-09T06:39:20.133Z,4.00
2019-02-09T06:40:20.078Z,4.00
2019-02-09T06:41:20.144Z,4.00
2019-02-09T06:42:20.012Z,0.00
2019-02-09T06:43:19.987Z,4.00
2019-02-09T06:44:20.054Z,4.00
2019-02-09T06:45:19.935Z,4.00
2019-02-09T06:46:19.964Z,4.00
2019-02-09T06:47:19.875Z,8.00
2019-02-09T06:48:19.842Z,4.00
2019-02-09T06:49:19.823Z,8.00
2019-02-09T06:50:19.891Z,8.00
2019-02-09T06:51:19.762Z,4.00
2019-02-09T06:52:19.801Z,4.00
2019-02-09T06:53:19.695Z,4.00
2019-02-09T06:54:19.663Z,4.00
2019-02-09T06:55:19.713Z,12.00
2019-02-09T06:56:19.611Z,16.00
2019-02-09T06:57:20.024Z,12.00
2019-02-09T06:58:19.565Z,16.00
2019-02-09T06:59:19.542Z,16.00
2019-02-09T07:00:19.490Z,20.00
2019-02-09T07:01:19.553Z,20.00
2019-02-09T07:02:19.444Z,12.00
2019-02-09T07:03:19.465Z,8.00
2019-02-09T07:04:19.373Z,8.00
2019-02-09T07:05:19.362Z,8.00
2019-02-09T07:06:19.373Z,12.00
2019-02-09T07:07:19.291Z,12.00
2019-02-09T07:08:19.283Z,12.00
2019-02-09T07:09:19.248Z,24.00
2019-02-09T07:10:19.300Z,24.00
2019-02-09T07:11:19.184Z,24.00
2019-02-09T07:12:19.213Z,24.00
2019-02-09T07:13:19.125Z,28.00
2019-02-09T07:14:19.138Z,36.00
2019-02-09T07:15:19.066Z,44.00
2019-02-09T07:16:19.043Z,48.00
2019-02-09T07:17:19.005Z,52.00
2019-02-09T07:18:19.041Z,56.00
2019-02-09T07:19:18.942Z,64.00
2019-02-09T07:20:18.953Z,88.00
2019-02-09T07:21:18.885Z,116.00
2019-02-09T07:22:18.873Z,128.00
2019-02-09T07:23:18.873Z,120.00
2019-02-09T07:24:18.815Z,96.00
2019-02-09T07:25:18.881Z,68.00
2019-02-09T07:26:18.745Z,44.00
2019-02-09T07:27:18.711Z,40.00
2019-02-09T07:28:18.692Z,44.00
2019-02-09T07:29:18.713Z,40.00
2019-02-09T07:30:18.623Z,48.00
2019-02-09T07:31:18.616Z,64.00
2019-02-09T07:32:18.562Z,84.00
2019-02-09T07:33:18.542Z,92.00
2019-02-09T07:34:18.514Z,100.00
2019-02-09T07:35:18.546Z,136.00
2019-02-09T07:36:18.462Z,148.00
2019-02-09T07:37:18.455Z,136.00
2019-02-09T07:38:18.393Z,136.00
2019-02-09T07:39:18.455Z,136.00
2019-02-09T07:40:18.333Z,132.00
2019-02-09T07:41:18.363Z,144.00
2019-02-09T07:42:18.282Z,160.00
2019-02-09T07:43:18.281Z,160.00
2019-02-09T07:44:18.223Z,156.00
2019-02-09T07:45:18.290Z,172.00
2019-02-09T07:46:18.174Z,180.00
2019-02-09T07:47:18.205Z,208.00
2019-02-09T07:48:18.123Z,264.00
2019-02-09T07:49:18.113Z,344.00
2019-02-09T07:50:18.044Z,408.00
2019-02-09T07:51:18.121Z,480.00
2019-02-09T07:52:17.992Z,532.00
2019-02-09T07:53:18.031Z,588.00
2019-02-09T07:54:17.935Z,668.00
2019-02-09T07:55:17.899Z,664.00
2019-02-09T07:56:17.874Z,712.00
2019-02-09T07:57:17.863Z,760.00
2019-02-09T07:58:17.825Z,776.00
2019-02-09T07:59:17.863Z,832.00
2019-02-09T08:00:17.761Z,916.00
2019-02-09T08:01:17.721Z,868.00
2019-02-09T08:02:17.784Z,900.00
2019-02-09T08:03:17.674Z,912.00
2019-02-09T08:04:17.690Z,980.00
2019-02-09T08:05:17.611Z,1048.00
2019-02-09T08:06:17.591Z,1020.00
2019-02-09T08:07:17.552Z,976.00
2019-02-09T08:08:17.621Z,1084.00
2019-02-09T08:09:17.490Z,1116.00
2019-02-09T08:10:17.522Z,1060.00
2019-02-09T08:11:17.452Z,1072.00
2019-02-09T08:12:17.411Z,1088.00
2019-02-09T08:13:17.541Z,1088.00
2019-02-09T08:14:17.361Z,1148.00
2019-02-09T08:15:17.350Z,1204.00
2019-02-09T08:16:17.289Z,1252.00
2019-02-09T08:17:17.282Z,1200.00
2019-02-09T08:18:17.230Z,1168.00
2019-02-09T08:19:17.383Z,1172.00
2019-02-09T08:20:17.170Z,1332.00
2019-02-09T08:21:17.296Z,1364.00
2019-02-09T08:22:17.129Z,1456.00
2019-02-09T08:23:17.109Z,1284.00
2019-02-09T08:24:17.123Z,1152.00
2019-02-09T08:25:17.039Z,1132.00
2019-02-09T08:26:17.119Z,1312.00
2019-02-09T08:27:23.481Z,1448.00
2019-02-09T08:28:16.961Z,1420.00
2019-02-09T08:29:16.930Z,1392.00
2019-02-09T08:30:16.950Z,1468.00
2019-02-09T08:31:16.870Z,1524.00
2019-02-09T08:32:16.863Z,1544.00
2019-02-09T08:33:16.799Z,1676.00
2019-02-09T08:34:16.780Z,1828.00
2019-02-09T08:35:16.783Z,1936.00
2019-02-09T08:36:16.722Z,2112.00
2019-02-09T08:37:16.790Z,2152.00
2019-02-09T08:38:16.676Z,2024.00
2019-02-09T08:39:16.632Z,1800.00
2019-02-09T08:40:16.616Z,1732.00
2019-02-09T08:41:16.628Z,1540.00
2019-02-09T08:42:16.552Z,1332.00
2019-02-09T08:43:16.637Z,1252.00
2019-02-09T08:44:16.500Z,1272.00
2019-02-09T08:45:16.552Z,1432.00
2019-02-09T08:46:16.440Z,1376.00
2019-02-09T08:47:16.450Z,1176.00
2019-02-09T08:48:16.390Z,1200.00
2019-02-09T08:49:16.361Z,1548.00
2019-02-09T08:50:16.370Z,2284.00
2019-02-09T08:51:16.291Z,2372.00
2019-02-09T08:52:16.283Z,1628.00
2019-02-09T08:53:16.242Z,1376.00
2019-02-09T08:54:16.302Z,1596.00
2019-02-09T08:55:16.202Z,1876.00
2019-02-09T08:56:16.162Z,2116.00
2019-02-09T08:57:16.222Z,2408.00
2019-02-09T08:58:16.112Z,2620.00
2019-02-09T08:59:16.132Z,2968.00
2019-02-09T09:00:16.051Z,3348.00
2019-02-09T09:01:16.025Z,3244.00
2019-02-09T09:02:20.711Z,2428.00
2019-02-09T09:03:15.964Z,1600.00
2019-02-09T09:04:15.959Z,1428.00
2019-02-09T09:05:15.901Z,1984.00
2019-02-09T09:06:15.873Z,2588.00
2019-02-09T09:07:15.840Z,2744.00
2019-02-09T09:08:15.882Z,1912.00
2019-02-09T09:09:15.794Z,1464.00
2019-02-09T09:10:15.802Z,1512.00
2019-02-09T09:11:15.741Z,2020.00
2019-02-09T09:12:15.759Z,1824.00
2019-02-09T09:13:15.725Z,720.00
2019-02-09T09:14:15.649Z,596.00
2019-02-09T09:15:15.731Z,560.00
2019-02-09T09:16:15.590Z,544.00
2019-02-09T09:17:15.570Z,584.00
2019-02-09T09:18:15.651Z,732.00
2019-02-09T09:19:15.531Z,988.00
2019-02-09T09:20:15.564Z,1180.00
2019-02-09T09:21:15.462Z,1296.00
2019-02-09T09:22:15.430Z,1220.00
2019-02-09T09:23:15.450Z,1260.00
2019-02-09T09:24:15.379Z,1096.00
2019-02-09T09:25:15.340Z,1356.00
2019-02-09T09:26:15.401Z,1728.00
2019-02-09T09:27:15.289Z,2132.00
2019-02-09T09:28:15.263Z,2748.00
2019-02-09T09:29:15.321Z,3492.00
2019-02-09T09:30:15.211Z,3976.00
2019-02-09T09:31:15.229Z,2976.00
2019-02-09T09:32:15.153Z,2136.00
2019-02-09T09:33:15.121Z,2144.00
2019-02-09T09:34:15.101Z,2292.00
2019-02-09T09:35:15.150Z,2196.00
2019-02-09T09:36:15.039Z,2560.00
2019-02-09T09:37:15.080Z,3104.00
2019-02-09T09:38:14.989Z,1692.00
2019-02-09T09:39:14.960Z,1396.00
2019-02-09T09:40:14.981Z,1420.00
2019-02-09T09:41:14.911Z,1912.00
2019-02-09T09:42:14.902Z,2176.00
2019-02-09T09:43:14.863Z,3376.00
2019-02-09T09:44:14.832Z,10664.00
2019-02-09T09:45:14.824Z,3240.00
2019-02-09T09:46:14.769Z,2740.00
2019-02-09T09:47:14.833Z,5048.00
2019-02-09T09:48:14.711Z,4912.00
2019-02-09T09:49:14.697Z,5544.00
2019-02-09T09:50:14.672Z,11028.00
2019-02-09T09:51:21.928Z,6048.00
2019-02-09T09:53:18.670Z,7708.00
2019-02-09T09:54:18.569Z,6096.00
2019-02-09T09:56:22.668Z,9332.00
2019-02-09T09:57:22.573Z,11184.00
2019-02-09T09:58:22.637Z,9336.00
2019-02-09T09:59:22.509Z,9104.00
2019-02-09T10:00:22.491Z,11140.00
2019-02-09T10:01:22.458Z,10624.00
2019-02-09T10:02:22.472Z,4004.00
2019-02-09T10:03:22.419Z,2468.00
2019-02-09T10:04:22.480Z,1564.00
2019-02-09T10:05:22.380Z,1172.00
2019-02-09T10:06:22.390Z,1056.00
2019-02-09T10:07:22.329Z,844.00
2019-02-09T10:08:22.398Z,752.00
2019-02-09T10:09:22.279Z,664.00
2019-02-09T10:10:22.309Z,584.00
2019-02-09T10:11:22.241Z,688.00
2019-02-09T10:12:22.330Z,920.00
2019-02-09T10:13:22.192Z,1668.00
2019-02-09T10:14:22.253Z,1236.00
2019-02-09T10:15:22.138Z,2204.00
2019-02-09T10:16:22.110Z,2344.00
2019-02-09T10:17:22.106Z,2400.00
2019-02-09T10:18:22.169Z,1784.00
2019-02-09T10:19:22.038Z,1848.00
2019-02-09T10:20:22.090Z,7740.00
2019-02-09T10:21:21.991Z,9272.00
2019-02-09T10:22:21.964Z,5040.00
2019-02-09T10:23:22.000Z,9340.00
2019-02-09T10:24:21.920Z,2284.00
2019-02-09T10:25:21.910Z,2312.00
2019-02-09T10:26:21.872Z,2052.00
2019-02-09T10:27:21.852Z,1832.00
2019-02-09T10:28:21.819Z,980.00
2019-02-09T10:29:21.828Z,696.00
2019-02-09T10:30:21.769Z,580.00
2019-02-09T10:31:21.850Z,716.00
2019-02-09T10:32:21.720Z,976.00
2019-02-09T10:33:21.710Z,1904.00
2019-02-09T10:34:21.779Z,2632.00
2019-02-09T10:35:21.639Z,6364.00
2019-02-09T10:36:21.679Z,12140.00
2019-02-09T10:37:21.588Z,7916.00
2019-02-09T10:38:21.570Z,11084.00
2019-02-09T10:39:21.538Z,9984.00
2019-02-09T10:40:21.610Z,3444.00
2019-02-09T10:41:21.499Z,1048.00
2019-02-09T10:42:21.619Z,748.00
2019-02-09T10:43:21.440Z,640.00
2019-02-09T10:44:21.430Z,592.00
2019-02-09T10:45:21.539Z,604.00
2019-02-09T10:46:21.370Z,584.00
2019-02-09T10:47:21.459Z,644.00
2019-02-09T10:48:21.328Z,840.00
2019-02-09T10:49:21.318Z,1152.00
2019-02-09T10:50:21.297Z,1088.00
2019-02-09T10:51:23.334Z,732.00
2019-02-09T10:52:21.230Z,744.00
2019-02-09T10:53:21.291Z,960.00
2019-02-09T10:54:21.180Z,1364.00
2019-02-09T10:55:21.148Z,1704.00
2019-02-09T10:56:21.208Z,2424.00
2019-02-09T10:57:21.111Z,5620.00
2019-02-09T10:58:21.218Z,3880.00
2019-02-09T10:59:21.050Z,1532.00
2019-02-09T11:00:21.130Z,1816.00
2019-02-09T11:01:21.007Z,1972.00
2019-02-09T11:02:21.040Z,2148.00
2019-02-09T11:03:20.949Z,2784.00
2019-02-09T11:04:21.070Z,3768.00
2019-02-09T11:05:20.901Z,5352.00
2019-02-09T11:06:20.871Z,4516.00
2019-02-09T11:07:20.869Z,1772.00
2019-02-09T11:08:20.882Z,1364.00
2019-02-09T11:09:20.804Z,2304.00
2019-02-09T11:10:20.889Z,7900.00
2019-02-09T11:11:20.749Z,5592.00
2019-02-09T11:12:20.722Z,7472.00
2019-02-09T11:13:20.822Z,4128.00
2019-02-09T11:14:20.668Z,2060.00
2019-02-09T11:15:20.731Z,4332.00
2019-02-09T11:16:20.621Z,2496.00
2019-02-09T11:17:20.590Z,3976.00
2019-02-09T11:18:20.560Z,14240.00
2019-02-09T11:19:20.660Z,10624.00
2019-02-09T11:20:20.521Z,12280.00
2019-02-09T11:21:20.562Z,13824.00
2019-02-09T11:22:20.470Z,4208.00
2019-02-09T11:23:20.446Z,3412.00
2019-02-09T11:24:20.589Z,11404.00
2019-02-09T11:25:20.421Z,11164.00
2019-02-09T11:26:20.517Z,10736.00
2019-02-09T11:27:20.368Z,2968.00
2019-02-09T11:28:20.337Z,6192.00
2019-02-09T11:29:20.310Z,2864.00
2019-02-09T11:30:20.417Z,2272.00
2019-02-09T11:31:20.250Z,1888.00
2019-02-09T11:32:20.240Z,1860.00
2019-02-09T11:33:20.189Z,2236.00
2019-02-09T11:34:20.176Z,6332.00
2019-02-09T11:35:20.249Z,4096.00
2019-02-09T11:36:20.131Z,7808.00
2019-02-09T11:37:20.160Z,6488.00
2019-02-09T11:38:20.067Z,20672.00
2019-02-09T11:39:20.080Z,9080.00
2019-02-09T11:40:20.028Z,9576.00
2019-02-09T11:41:20.176Z,1460.00
2019-02-09T11:42:19.970Z,1884.00
2019-02-09T11:43:20.082Z,1820.00
2019-02-09T11:44:19.931Z,1796.00
2019-02-09T11:45:19.913Z,1892.00
2019-02-09T11:46:19.881Z,1872.00
2019-02-09T11:47:19.932Z,2092.00
2019-02-09T11:48:19.830Z,2440.00
2019-02-09T11:49:19.840Z,1304.00
2019-02-09T11:50:19.779Z,1008.00
2019-02-09T11:51:19.761Z,1044.00
2019-02-09T11:52:19.760Z,1408.00
2019-02-09T11:53:19.711Z,2800.00
2019-02-09T11:54:19.768Z,3036.00
2019-02-09T11:55:19.658Z,5332.00
2019-02-09T11:56:19.630Z,7728.00
2019-02-09T11:57:19.610Z,6892.00
2019-02-09T11:58:19.602Z,29984.00
2019-02-09T11:59:21.257Z,10320.00
2019-02-09T12:00:19.609Z,4680.00
2019-02-09T12:01:19.497Z,12024.00
2019-02-09T12:02:19.480Z,3164.00
2019-02-09T12:03:19.529Z,1384.00
2019-02-09T12:04:19.470Z,1076.00
2019-02-09T12:05:19.441Z,928.00
2019-02-09T12:06:19.381Z,868.00
2019-02-09T12:07:19.370Z,760.00
2019-02-09T12:08:19.330Z,848.00
2019-02-09T12:09:19.370Z,916.00
2019-02-09T12:10:19.271Z,908.00
2019-02-09T12:11:19.285Z,996.00
2019-02-09T12:12:19.229Z,880.00
2019-02-09T12:13:19.210Z,1704.00
2019-02-09T12:14:19.203Z,892.00
2019-02-09T12:15:19.150Z,796.00
2019-02-09T12:16:19.211Z,652.00
2019-02-09T12:17:19.106Z,492.00
2019-02-09T12:18:19.079Z,384.00
2019-02-09T12:19:19.045Z,468.00
2019-02-09T12:20:19.029Z,772.00
2019-02-09T12:21:18.991Z,1824.00
2019-02-09T12:22:19.040Z,2352.00
2019-02-09T12:23:18.939Z,4512.00
2019-02-09T12:24:18.913Z,3188.00
2019-02-09T12:25:18.982Z,3944.00
2019-02-09T12:26:18.861Z,8460.00
2019-02-09T12:27:18.881Z,7412.00
2019-02-09T12:28:18.811Z,7160.00
2019-02-09T12:29:18.792Z,5728.00
2019-02-09T12:30:18.751Z,5012.00
2019-02-09T12:31:18.812Z,3516.00
2019-02-09T12:32:18.701Z,4480.00
2019-02-09T12:33:23.136Z,3144.00
2019-02-09T12:34:18.642Z,2964.00
2019-02-09T12:35:18.731Z,3596.00
2019-02-09T12:36:18.592Z,2376.00
2019-02-09T12:37:18.644Z,2040.00
2019-02-09T12:38:18.583Z,1864.00
2019-02-09T12:39:18.553Z,1644.00
2019-02-09T12:40:18.583Z,1600.00
2019-02-09T12:41:18.471Z,1624.00
2019-02-09T12:42:18.471Z,1636.00
2019-02-09T12:43:18.420Z,1688.00
2019-02-09T12:44:18.493Z,1744.00
2019-02-09T12:45:18.361Z,1524.00
2019-02-09T12:46:18.403Z,1380.00
2019-02-09T12:47:18.302Z,1332.00
2019-02-09T12:48:18.311Z,1372.00
2019-02-09T12:49:18.261Z,1504.00